sensor_id;sensor_type;location;lat;lon;timestamp;P1;durP1;ratioP1;P2;durP2;ratioP2
61640;SDS011;62201;49.966;8.342;2023-02-18T00:01:00;3.78;;;3.47;;
61640;SDS011;62201;49.966;8.342;2023-02-18T00:03:27;4.25;;;3.40;;
61640;SDS011;62201;49.966;8.342;2023-02-18T00:05:53;5.32;;;3.38;;
61640;SDS011;62201;49.966;8.342;2023-02-18T00:08:19;3.53;;;3.22;;
61640;SDS011;62201;49.966;8.342;2023-02-18T00:10:45;4.13;;;3.20;;
61640;SDS011;62201;49.966;8.342;2023-02-18T00:13:11;3.72;;;3.33;;
61640;SDS011;62201;49.966;8.342;2023-02-18T00:15:37;3.40;;;3.00;;
61640;SDS011;62201;49.966;8.342;2023-02-18T00:18:03;3.65;;;3.33;;
61640;SDS011;62201;49.966;8.342;2023-02-18T00:20:29;3.45;;;3.15;;
61640;SDS011;62201;49.966;8.342;2023-02-18T00:22:54;4.18;;;3.38;;
61640;SDS011;62201;49.966;8.342;2023-02-18T00:25:20;3.53;;;3.03;;
61640;SDS011;62201;49.966;8.342;2023-02-18T00:27:45;2.78;;;2.33;;
61640;SDS011;62201;49.966;8.342;2023-02-18T00:30:11;2.85;;;2.60;;
61640;SDS011;62201;49.966;8.342;2023-02-18T00:32:37;2.92;;;2.47;;
61640;SDS011;62201;49.966;8.342;2023-02-18T00:35:02;2.83;;;2.58;;
61640;SDS011;62201;49.966;8.342;2023-02-18T00:37:28;3.60;;;2.20;;
61640;SDS011;62201;49.966;8.342;2023-02-18T00:39:54;2.60;;;2.10;;
61640;SDS011;62201;49.966;8.342;2023-02-18T00:42:19;3.65;;;2.28;;
61640;SDS011;62201;49.966;8.342;2023-02-18T00:44:44;2.03;;;1.77;;
61640;SDS011;62201;49.966;8.342;2023-02-18T00:47:10;1.73;;;1.50;;
61640;SDS011;62201;49.966;8.342;2023-02-18T00:49:35;2.40;;;1.70;;
61640;SDS011;62201;49.966;8.342;2023-02-18T00:52:01;2.13;;;1.42;;
61640;SDS011;62201;49.966;8.342;2023-02-18T00:54:26;2.05;;;1.40;;
61640;SDS011;62201;49.966;8.342;2023-02-18T00:56:52;2.38;;;1.10;;
61640;SDS011;62201;49.966;8.342;2023-02-18T00:59:17;1.25;;;1.15;;
61640;SDS011;62201;49.966;8.342;2023-02-18T01:01:42;2.78;;;1.38;;
61640;SDS011;62201;49.966;8.342;2023-02-18T01:04:08;1.20;;;1.10;;
61640;SDS011;62201;49.966;8.342;2023-02-18T01:06:33;2.72;;;1.30;;
61640;SDS011;62201;49.966;8.342;2023-02-18T01:08:58;2.38;;;1.63;;
61640;SDS011;62201;49.966;8.342;2023-02-18T01:11:24;4.95;;;1.48;;
61640;SDS011;62201;49.966;8.342;2023-02-18T01:13:49;2.58;;;1.80;;
61640;SDS011;62201;49.966;8.342;2023-02-18T01:16:15;2.20;;;1.88;;
61640;SDS011;62201;49.966;8.342;2023-02-18T01:18:41;1.98;;;1.70;;
61640;SDS011;62201;49.966;8.342;2023-02-18T01:21:07;2.67;;;1.80;;
61640;SDS011;62201;49.966;8.342;2023-02-18T01:23:33;2.00;;;1.80;;
61640;SDS011;62201;49.966;8.342;2023-02-18T01:25:59;2.00;;;1.80;;
61640;SDS011;62201;49.966;8.342;2023-02-18T01:28:24;3.42;;;2.35;;
61640;SDS011;62201;49.966;8.342;2023-02-18T01:30:51;2.25;;;2.03;;
61640;SDS011;62201;49.966;8.342;2023-02-18T01:33:18;3.70;;;1.88;;
61640;SDS011;62201;49.966;8.342;2023-02-18T01:35:44;2.00;;;1.80;;
61640;SDS011;62201;49.966;8.342;2023-02-18T01:38:09;3.35;;;1.50;;
61640;SDS011;62201;49.966;8.342;2023-02-18T01:40:35;2.13;;;1.50;;
61640;SDS011;62201;49.966;8.342;2023-02-18T01:43:08;1.50;;;1.25;;
61640;SDS011;62201;49.966;8.342;2023-02-18T01:48:23;1.23;;;0.93;;
61640;SDS011;62201;49.966;8.342;2023-02-18T01:51:03;1.33;;;1.00;;
61640;SDS011;62201;49.966;8.342;2023-02-18T01:53:46;0.73;;;0.70;;
61640;SDS011;62201;49.966;8.342;2023-02-18T01:56:26;0.77;;;0.77;;
61640;SDS011;62201;49.966;8.342;2023-02-18T01:58:57;0.88;;;0.77;;
61640;SDS011;62201;49.966;8.342;2023-02-18T02:01:25;2.25;;;0.77;;
61640;SDS011;62201;49.966;8.342;2023-02-18T02:03:51;1.08;;;0.60;;
61640;SDS011;62201;49.966;8.342;2023-02-18T02:06:18;0.98;;;0.55;;
61640;SDS011;62201;49.966;8.342;2023-02-18T02:08:45;1.23;;;0.60;;
61640;SDS011;62201;49.966;8.342;2023-02-18T02:13:55;2.15;;;0.57;;
61640;SDS011;62201;49.966;8.342;2023-02-18T02:16:29;3.25;;;1.00;;
61640;SDS011;62201;49.966;8.342;2023-02-18T02:24:52;1.25;;;0.80;;
61640;SDS011;62201;49.966;8.342;2023-02-18T02:28:03;0.80;;;0.70;;
61640;SDS011;62201;49.966;8.342;2023-02-18T02:30:58;1.05;;;0.80;;
61640;SDS011;62201;49.966;8.342;2023-02-18T02:36:29;1.23;;;0.70;;
61640;SDS011;62201;49.966;8.342;2023-02-18T02:39:09;2.70;;;1.38;;
61640;SDS011;62201;49.966;8.342;2023-02-18T02:44:38;1.90;;;1.05;;
61640;SDS011;62201;49.966;8.342;2023-02-18T02:47:13;1.27;;;0.90;;
61640;SDS011;62201;49.966;8.342;2023-02-18T02:49:49;1.52;;;1.10;;
61640;SDS011;62201;49.966;8.342;2023-02-18T02:52:25;1.15;;;0.90;;
61640;SDS011;62201;49.966;8.342;2023-02-18T02:54:55;1.20;;;1.10;;
61640;SDS011;62201;49.966;8.342;2023-02-18T02:59:48;1.40;;;0.88;;
61640;SDS011;62201;49.966;8.342;2023-02-18T03:19:02;1.02;;;0.90;;
61640;SDS011;62201;49.966;8.342;2023-02-18T03:21:38;0.80;;;0.77;;
61640;SDS011;62201;49.966;8.342;2023-02-18T03:29:55;1.05;;;0.95;;
61640;SDS011;62201;49.966;8.342;2023-02-18T03:32:24;2.05;;;1.20;;
61640;SDS011;62201;49.966;8.342;2023-02-18T03:34:54;1.70;;;1.20;;
61640;SDS011;62201;49.966;8.342;2023-02-18T03:37:24;2.13;;;1.10;;
61640;SDS011;62201;49.966;8.342;2023-02-18T03:39:51;1.60;;;0.82;;
61640;SDS011;62201;49.966;8.342;2023-02-18T03:42:24;1.20;;;1.00;;
61640;SDS011;62201;49.966;8.342;2023-02-18T03:44:51;1.35;;;1.25;;
61640;SDS011;62201;49.966;8.342;2023-02-18T03:47:16;1.70;;;1.00;;
61640;SDS011;62201;49.966;8.342;2023-02-18T03:49:41;3.15;;;1.20;;
61640;SDS011;62201;49.966;8.342;2023-02-18T03:52:07;1.33;;;1.23;;
61640;SDS011;62201;49.966;8.342;2023-02-18T03:54:32;4.68;;;1.55;;
61640;SDS011;62201;49.966;8.342;2023-02-18T03:56:57;1.65;;;1.30;;
61640;SDS011;62201;49.966;8.342;2023-02-18T03:59:23;2.28;;;1.05;;
61640;SDS011;62201;49.966;8.342;2023-02-18T04:01:48;2.40;;;1.27;;
61640;SDS011;62201;49.966;8.342;2023-02-18T04:04:13;1.95;;;1.30;;
61640;SDS011;62201;49.966;8.342;2023-02-18T04:06:39;1.33;;;1.13;;
61640;SDS011;62201;49.966;8.342;2023-02-18T04:09:04;1.48;;;1.25;;
61640;SDS011;62201;49.966;8.342;2023-02-18T04:11:33;1.45;;;1.20;;
61640;SDS011;62201;49.966;8.342;2023-02-18T04:14:02;2.38;;;1.75;;
61640;SDS011;62201;49.966;8.342;2023-02-18T04:16:27;1.13;;;1.08;;
61640;SDS011;62201;49.966;8.342;2023-02-18T04:18:53;1.20;;;1.10;;
61640;SDS011;62201;49.966;8.342;2023-02-18T04:21:18;2.03;;;1.10;;
61640;SDS011;62201;49.966;8.342;2023-02-18T04:23:44;2.55;;;0.90;;
61640;SDS011;62201;49.966;8.342;2023-02-18T04:26:09;1.70;;;0.85;;
61640;SDS011;62201;49.966;8.342;2023-02-18T04:28:34;1.83;;;0.88;;
61640;SDS011;62201;49.966;8.342;2023-02-18T04:31:00;1.13;;;0.70;;
61640;SDS011;62201;49.966;8.342;2023-02-18T04:33:25;1.52;;;0.57;;
61640;SDS011;62201;49.966;8.342;2023-02-18T04:35:50;1.30;;;0.80;;
61640;SDS011;62201;49.966;8.342;2023-02-18T04:38:16;2.45;;;1.15;;
61640;SDS011;62201;49.966;8.342;2023-02-18T04:40:41;1.65;;;1.10;;
61640;SDS011;62201;49.966;8.342;2023-02-18T04:43:07;2.83;;;1.40;;
61640;SDS011;62201;49.966;8.342;2023-02-18T04:45:32;2.10;;;1.30;;
61640;SDS011;62201;49.966;8.342;2023-02-18T04:47:58;1.70;;;1.23;;
61640;SDS011;62201;49.966;8.342;2023-02-18T04:50:23;1.40;;;1.10;;
61640;SDS011;62201;49.966;8.342;2023-02-18T04:52:48;1.35;;;1.00;;
61640;SDS011;62201;49.966;8.342;2023-02-18T04:55:14;1.77;;;1.08;;
61640;SDS011;62201;49.966;8.342;2023-02-18T04:57:39;2.70;;;1.15;;
61640;SDS011;62201;49.966;8.342;2023-02-18T05:00:05;1.35;;;1.20;;
61640;SDS011;62201;49.966;8.342;2023-02-18T05:02:32;4.82;;;1.52;;
61640;SDS011;62201;49.966;8.342;2023-02-18T05:04:58;2.88;;;1.42;;
61640;SDS011;62201;49.966;8.342;2023-02-18T05:07:23;1.52;;;1.38;;
61640;SDS011;62201;49.966;8.342;2023-02-18T05:09:49;2.08;;;1.40;;
61640;SDS011;62201;49.966;8.342;2023-02-18T05:12:14;2.30;;;1.30;;
61640;SDS011;62201;49.966;8.342;2023-02-18T05:14:40;1.92;;;1.60;;
61640;SDS011;62201;49.966;8.342;2023-02-18T05:17:05;1.77;;;1.40;;
61640;SDS011;62201;49.966;8.342;2023-02-18T05:19:30;2.83;;;1.20;;
61640;SDS011;62201;49.966;8.342;2023-02-18T05:21:56;1.70;;;1.20;;
61640;SDS011;62201;49.966;8.342;2023-02-18T05:24:21;2.42;;;1.23;;
61640;SDS011;62201;49.966;8.342;2023-02-18T05:26:47;1.50;;;1.20;;
61640;SDS011;62201;49.966;8.342;2023-02-18T05:29:12;1.20;;;1.10;;
61640;SDS011;62201;49.966;8.342;2023-02-18T05:31:37;1.40;;;1.30;;
61640;SDS011;62201;49.966;8.342;2023-02-18T05:34:03;2.05;;;1.10;;
61640;SDS011;62201;49.966;8.342;2023-02-18T05:36:28;2.25;;;1.23;;
61640;SDS011;62201;49.966;8.342;2023-02-18T05:38:54;1.63;;;1.17;;
61640;SDS011;62201;49.966;8.342;2023-02-18T05:41:19;1.75;;;1.00;;
61640;SDS011;62201;49.966;8.342;2023-02-18T05:43:45;1.80;;;1.13;;
61640;SDS011;62201;49.966;8.342;2023-02-18T05:46:29;1.98;;;1.15;;
61640;SDS011;62201;49.966;8.342;2023-02-18T05:48:54;2.15;;;1.30;;
61640;SDS011;62201;49.966;8.342;2023-02-18T05:51:19;1.83;;;1.50;;
61640;SDS011;62201;49.966;8.342;2023-02-18T05:53:45;4.80;;;1.58;;
61640;SDS011;62201;49.966;8.342;2023-02-18T05:56:10;3.90;;;1.55;;
61640;SDS011;62201;49.966;8.342;2023-02-18T05:58:36;2.50;;;1.80;;
61640;SDS011;62201;49.966;8.342;2023-02-18T06:01:01;2.65;;;1.70;;
61640;SDS011;62201;49.966;8.342;2023-02-18T06:03:27;4.00;;;1.70;;
61640;SDS011;62201;49.966;8.342;2023-02-18T06:05:53;1.90;;;1.50;;
61640;SDS011;62201;49.966;8.342;2023-02-18T06:08:18;1.58;;;1.27;;
61640;SDS011;62201;49.966;8.342;2023-02-18T06:10:46;2.70;;;1.48;;
61640;SDS011;62201;49.966;8.342;2023-02-18T06:13:12;2.15;;;1.35;;
61640;SDS011;62201;49.966;8.342;2023-02-18T06:15:38;2.25;;;1.70;;
61640;SDS011;62201;49.966;8.342;2023-02-18T06:18:04;3.05;;;1.60;;
61640;SDS011;62201;49.966;8.342;2023-02-18T06:20:29;2.63;;;1.42;;
61640;SDS011;62201;49.966;8.342;2023-02-18T06:22:55;1.65;;;1.40;;
61640;SDS011;62201;49.966;8.342;2023-02-18T06:25:20;1.80;;;1.48;;
61640;SDS011;62201;49.966;8.342;2023-02-18T06:27:46;3.05;;;1.70;;
61640;SDS011;62201;49.966;8.342;2023-02-18T06:30:11;2.70;;;1.70;;
61640;SDS011;62201;49.966;8.342;2023-02-18T06:32:37;2.78;;;1.83;;
61640;SDS011;62201;49.966;8.342;2023-02-18T06:35:02;3.42;;;1.85;;
61640;SDS011;62201;49.966;8.342;2023-02-18T06:37:28;2.28;;;1.70;;
61640;SDS011;62201;49.966;8.342;2023-02-18T06:39:53;2.78;;;1.60;;
61640;SDS011;62201;49.966;8.342;2023-02-18T06:42:19;2.13;;;1.50;;
61640;SDS011;62201;49.966;8.342;2023-02-18T06:44:44;2.10;;;1.35;;
61640;SDS011;62201;49.966;8.342;2023-02-18T06:47:09;3.03;;;1.60;;
61640;SDS011;62201;49.966;8.342;2023-02-18T06:49:35;2.63;;;1.60;;
61640;SDS011;62201;49.966;8.342;2023-02-18T06:52:00;3.28;;;1.70;;
61640;SDS011;62201;49.966;8.342;2023-02-18T06:54:26;3.53;;;1.50;;
61640;SDS011;62201;49.966;8.342;2023-02-18T06:56:51;1.55;;;1.30;;
61640;SDS011;62201;49.966;8.342;2023-02-18T06:59:17;1.67;;;1.30;;
61640;SDS011;62201;49.966;8.342;2023-02-18T07:01:43;2.97;;;1.20;;
61640;SDS011;62201;49.966;8.342;2023-02-18T07:04:08;2.40;;;1.10;;
61640;SDS011;62201;49.966;8.342;2023-02-18T07:06:33;1.10;;;1.00;;
61640;SDS011;62201;49.966;8.342;2023-02-18T07:08:59;2.05;;;1.40;;
61640;SDS011;62201;49.966;8.342;2023-02-18T07:11:24;4.10;;;1.55;;
61640;SDS011;62201;49.966;8.342;2023-02-18T07:13:51;2.83;;;1.50;;
61640;SDS011;62201;49.966;8.342;2023-02-18T07:16:16;2.72;;;1.67;;
61640;SDS011;62201;49.966;8.342;2023-02-18T07:18:41;4.03;;;1.90;;
61640;SDS011;62201;49.966;8.342;2023-02-18T07:21:07;2.00;;;1.73;;
61640;SDS011;62201;49.966;8.342;2023-02-18T07:23:32;2.05;;;1.77;;
61640;SDS011;62201;49.966;8.342;2023-02-18T07:26:02;2.85;;;1.70;;
61640;SDS011;62201;49.966;8.342;2023-02-18T07:28:38;2.13;;;1.52;;
61640;SDS011;62201;49.966;8.342;2023-02-18T07:31:04;2.85;;;1.70;;
61640;SDS011;62201;49.966;8.342;2023-02-18T07:33:30;4.13;;;1.90;;
61640;SDS011;62201;49.966;8.342;2023-02-18T07:35:56;3.05;;;1.88;;
61640;SDS011;62201;49.966;8.342;2023-02-18T07:38:23;2.65;;;2.10;;
61640;SDS011;62201;49.966;8.342;2023-02-18T07:40:49;3.28;;;2.10;;
61640;SDS011;62201;49.966;8.342;2023-02-18T07:43:16;2.65;;;1.77;;
61640;SDS011;62201;49.966;8.342;2023-02-18T07:45:41;4.35;;;2.00;;
61640;SDS011;62201;49.966;8.342;2023-02-18T07:48:07;3.47;;;2.03;;
61640;SDS011;62201;49.966;8.342;2023-02-18T07:50:32;4.40;;;2.22;;
61640;SDS011;62201;49.966;8.342;2023-02-18T07:53:01;4.43;;;1.90;;
61640;SDS011;62201;49.966;8.342;2023-02-18T07:55:28;3.58;;;2.25;;
61640;SDS011;62201;49.966;8.342;2023-02-18T07:58:12;2.83;;;2.13;;
61640;SDS011;62201;49.966;8.342;2023-02-18T08:00:37;3.05;;;2.30;;
61640;SDS011;62201;49.966;8.342;2023-02-18T08:03:13;4.65;;;2.60;;
61640;SDS011;62201;49.966;8.342;2023-02-18T08:05:40;4.35;;;2.25;;
61640;SDS011;62201;49.966;8.342;2023-02-18T08:08:06;2.45;;;2.25;;
61640;SDS011;62201;49.966;8.342;2023-02-18T08:10:31;3.50;;;2.28;;
61640;SDS011;62201;49.966;8.342;2023-02-18T08:12:56;3.22;;;2.35;;
61640;SDS011;62201;49.966;8.342;2023-02-18T08:15:22;3.97;;;2.47;;
61640;SDS011;62201;49.966;8.342;2023-02-18T08:17:47;2.80;;;2.22;;
61640;SDS011;62201;49.966;8.342;2023-02-18T08:20:13;2.50;;;2.08;;
61640;SDS011;62201;49.966;8.342;2023-02-18T08:22:38;3.50;;;2.00;;
61640;SDS011;62201;49.966;8.342;2023-02-18T08:25:04;4.13;;;1.98;;
61640;SDS011;62201;49.966;8.342;2023-02-18T08:27:29;2.63;;;1.73;;
61640;SDS011;62201;49.966;8.342;2023-02-18T08:29:55;2.30;;;1.65;;
61640;SDS011;62201;49.966;8.342;2023-02-18T08:32:20;3.05;;;1.63;;
61640;SDS011;62201;49.966;8.342;2023-02-18T08:34:46;3.75;;;1.70;;
61640;SDS011;62201;49.966;8.342;2023-02-18T08:37:11;2.80;;;1.70;;
61640;SDS011;62201;49.966;8.342;2023-02-18T08:39:37;5.97;;;2.03;;
61640;SDS011;62201;49.966;8.342;2023-02-18T08:42:03;3.70;;;1.80;;
61640;SDS011;62201;49.966;8.342;2023-02-18T08:44:29;3.03;;;1.85;;
61640;SDS011;62201;49.966;8.342;2023-02-18T08:46:54;3.22;;;1.70;;
61640;SDS011;62201;49.966;8.342;2023-02-18T08:49:20;3.05;;;2.03;;
61640;SDS011;62201;49.966;8.342;2023-02-18T08:51:48;2.47;;;1.77;;
61640;SDS011;62201;49.966;8.342;2023-02-18T08:54:16;2.30;;;1.73;;
61640;SDS011;62201;49.966;8.342;2023-02-18T08:56:42;2.55;;;1.85;;
61640;SDS011;62201;49.966;8.342;2023-02-18T08:59:08;2.10;;;1.90;;
61640;SDS011;62201;49.966;8.342;2023-02-18T09:01:33;3.35;;;1.95;;
61640;SDS011;62201;49.966;8.342;2023-02-18T09:03:58;2.13;;;1.63;;
61640;SDS011;62201;49.966;8.342;2023-02-18T09:06:24;1.88;;;1.20;;
61640;SDS011;62201;49.966;8.342;2023-02-18T09:08:49;2.40;;;1.40;;
61640;SDS011;62201;49.966;8.342;2023-02-18T09:11:15;2.85;;;1.30;;
61640;SDS011;62201;49.966;8.342;2023-02-18T09:13:41;1.73;;;1.10;;
61640;SDS011;62201;49.966;8.342;2023-02-18T09:16:08;1.45;;;1.02;;
61640;SDS011;62201;49.966;8.342;2023-02-18T09:18:39;2.25;;;1.00;;
61640;SDS011;62201;49.966;8.342;2023-02-18T09:21:06;1.35;;;0.82;;
61640;SDS011;62201;49.966;8.342;2023-02-18T09:23:33;1.17;;;0.70;;
61640;SDS011;62201;49.966;8.342;2023-02-18T09:25:59;3.85;;;0.70;;
61640;SDS011;62201;49.966;8.342;2023-02-18T09:28:29;1.73;;;0.93;;
61640;SDS011;62201;49.966;8.342;2023-02-18T09:30:54;1.17;;;0.68;;
61640;SDS011;62201;49.966;8.342;2023-02-18T09:33:20;1.17;;;0.60;;
61640;SDS011;62201;49.966;8.342;2023-02-18T09:35:46;1.30;;;0.57;;
61640;SDS011;62201;49.966;8.342;2023-02-18T09:38:12;0.80;;;0.50;;
61640;SDS011;62201;49.966;8.342;2023-02-18T09:40:45;1.30;;;0.60;;
61640;SDS011;62201;49.966;8.342;2023-02-18T09:43:30;1.13;;;0.45;;
61640;SDS011;62201;49.966;8.342;2023-02-18T09:48:52;0.77;;;0.40;;
61640;SDS011;62201;49.966;8.342;2023-02-18T09:51:17;1.05;;;0.50;;
61640;SDS011;62201;49.966;8.342;2023-02-18T09:53:44;1.92;;;0.60;;
61640;SDS011;62201;49.966;8.342;2023-02-18T09:56:11;1.77;;;0.50;;
61640;SDS011;62201;49.966;8.342;2023-02-18T09:58:39;1.42;;;0.70;;
61640;SDS011;62201;49.966;8.342;2023-02-18T10:01:14;2.25;;;0.60;;
61640;SDS011;62201;49.966;8.342;2023-02-18T10:03:41;1.13;;;0.50;;
61640;SDS011;62201;49.966;8.342;2023-02-18T10:06:12;1.27;;;0.50;;
61640;SDS011;62201;49.966;8.342;2023-02-18T10:08:43;0.95;;;0.50;;
61640;SDS011;62201;49.966;8.342;2023-02-18T10:11:12;0.90;;;0.50;;
61640;SDS011;62201;49.966;8.342;2023-02-18T10:13:45;0.50;;;0.30;;
61640;SDS011;62201;49.966;8.342;2023-02-18T10:16:15;1.45;;;0.55;;
61640;SDS011;62201;49.966;8.342;2023-02-18T10:18:43;2.20;;;0.43;;
61640;SDS011;62201;49.966;8.342;2023-02-18T10:21:14;0.43;;;0.38;;
61640;SDS011;62201;49.966;8.342;2023-02-18T10:23:45;1.10;;;0.40;;
61640;SDS011;62201;49.966;8.342;2023-02-18T10:26:15;2.63;;;0.43;;
61640;SDS011;62201;49.966;8.342;2023-02-18T10:28:42;1.02;;;0.40;;
61640;SDS011;62201;49.966;8.342;2023-02-18T10:31:09;1.35;;;0.65;;
61640;SDS011;62201;49.966;8.342;2023-02-18T10:33:58;1.55;;;0.40;;
61640;SDS011;62201;49.966;8.342;2023-02-18T10:36:35;1.85;;;0.60;;
61640;SDS011;62201;49.966;8.342;2023-02-18T10:42:38;1.48;;;0.40;;
61640;SDS011;62201;49.966;8.342;2023-02-18T10:45:23;0.98;;;0.50;;
61640;SDS011;62201;49.966;8.342;2023-02-18T10:48:22;1.70;;;0.60;;
61640;SDS011;62201;49.966;8.342;2023-02-18T10:51:05;2.55;;;0.50;;
61640;SDS011;62201;49.966;8.342;2023-02-18T10:53:39;2.08;;;0.80;;
61640;SDS011;62201;49.966;8.342;2023-02-18T10:56:08;2.47;;;0.50;;
61640;SDS011;62201;49.966;8.342;2023-02-18T10:59:00;1.05;;;0.50;;
61640;SDS011;62201;49.966;8.342;2023-02-18T11:01:33;2.17;;;0.73;;
61640;SDS011;62201;49.966;8.342;2023-02-18T11:04:17;1.70;;;0.43;;
61640;SDS011;62201;49.966;8.342;2023-02-18T11:06:48;0.93;;;0.50;;
61640;SDS011;62201;49.966;8.342;2023-02-18T11:09:29;1.58;;;0.60;;
61640;SDS011;62201;49.966;8.342;2023-02-18T11:12:04;3.13;;;0.70;;
61640;SDS011;62201;49.966;8.342;2023-02-18T11:14:45;1.58;;;0.75;;
61640;SDS011;62201;49.966;8.342;2023-02-18T11:17:17;1.35;;;0.60;;
61640;SDS011;62201;49.966;8.342;2023-02-18T11:19:51;2.45;;;0.80;;
61640;SDS011;62201;49.966;8.342;2023-02-18T11:22:27;3.75;;;0.80;;
61640;SDS011;62201;49.966;8.342;2023-02-18T11:24:58;1.00;;;0.60;;
61640;SDS011;62201;49.966;8.342;2023-02-18T11:30:04;1.92;;;0.90;;
61640;SDS011;62201;49.966;8.342;2023-02-18T11:32:33;4.32;;;1.27;;
61640;SDS011;62201;49.966;8.342;2023-02-18T11:35:04;2.10;;;1.10;;
61640;SDS011;62201;49.966;8.342;2023-02-18T11:37:31;2.50;;;0.82;;
61640;SDS011;62201;49.966;8.342;2023-02-18T11:39:57;1.83;;;0.70;;
61640;SDS011;62201;49.966;8.342;2023-02-18T11:42:23;2.08;;;1.10;;
61640;SDS011;62201;49.966;8.342;2023-02-18T11:44:57;1.23;;;0.70;;
61640;SDS011;62201;49.966;8.342;2023-02-18T11:47:42;1.60;;;0.80;;
61640;SDS011;62201;49.966;8.342;2023-02-18T11:52:36;4.38;;;1.63;;
61640;SDS011;62201;49.966;8.342;2023-02-18T11:55:05;3.10;;;1.48;;
61640;SDS011;62201;49.966;8.342;2023-02-18T11:57:43;2.63;;;1.35;;
61640;SDS011;62201;49.966;8.342;2023-02-18T12:02:46;5.55;;;1.20;;
61640;SDS011;62201;49.966;8.342;2023-02-18T12:05:23;4.10;;;1.13;;
61640;SDS011;62201;49.966;8.342;2023-02-18T12:07:51;4.50;;;0.93;;
61640;SDS011;62201;49.966;8.342;2023-02-18T12:10:48;3.85;;;1.10;;
61640;SDS011;62201;49.966;8.342;2023-02-18T12:15:56;3.08;;;1.20;;
61640;SDS011;62201;49.966;8.342;2023-02-18T12:26:57;2.53;;;0.88;;
61640;SDS011;62201;49.966;8.342;2023-02-18T12:34:49;3.47;;;1.00;;
61640;SDS011;62201;49.966;8.342;2023-02-18T12:46:14;2.40;;;1.05;;
61640;SDS011;62201;49.966;8.342;2023-02-18T12:57:06;5.07;;;1.00;;
61640;SDS011;62201;49.966;8.342;2023-02-18T13:05:44;3.40;;;1.10;;
61640;SDS011;62201;49.966;8.342;2023-02-18T13:16:56;3.38;;;1.20;;
61640;SDS011;62201;49.966;8.342;2023-02-18T13:19:25;3.17;;;1.20;;
61640;SDS011;62201;49.966;8.342;2023-02-18T13:22:04;3.47;;;1.27;;
61640;SDS011;62201;49.966;8.342;2023-02-18T13:24:35;5.47;;;1.20;;
61640;SDS011;62201;49.966;8.342;2023-02-18T13:27:05;4.03;;;1.40;;
61640;SDS011;62201;49.966;8.342;2023-02-18T13:30:09;3.28;;;1.33;;
61640;SDS011;62201;49.966;8.342;2023-02-18T13:32:56;3.75;;;1.05;;
61640;SDS011;62201;49.966;8.342;2023-02-18T13:35:42;6.10;;;1.55;;
61640;SDS011;62201;49.966;8.342;2023-02-18T13:40:55;3.03;;;1.10;;
61640;SDS011;62201;49.966;8.342;2023-02-18T13:46:01;2.63;;;1.10;;
61640;SDS011;62201;49.966;8.342;2023-02-18T13:51:12;3.20;;;1.30;;
61640;SDS011;62201;49.966;8.342;2023-02-18T13:53:41;3.35;;;1.45;;
61640;SDS011;62201;49.966;8.342;2023-02-18T13:58:46;3.70;;;1.40;;
61640;SDS011;62201;49.966;8.342;2023-02-18T14:01:19;2.58;;;1.08;;
61640;SDS011;62201;49.966;8.342;2023-02-18T14:06:27;3.70;;;1.27;;
61640;SDS011;62201;49.966;8.342;2023-02-18T14:09:34;7.80;;;1.90;;
61640;SDS011;62201;49.966;8.342;2023-02-18T14:11:55;5.05;;;1.45;;
61640;SDS011;62201;49.966;8.342;2023-02-18T14:14:39;2.90;;;1.00;;
61640;SDS011;62201;49.966;8.342;2023-02-18T14:19:42;3.47;;;1.27;;
61640;SDS011;62201;49.966;8.342;2023-02-18T14:27:32;4.05;;;1.15;;
61640;SDS011;62201;49.966;8.342;2023-02-18T14:30:32;2.67;;;0.98;;
61640;SDS011;62201;49.966;8.342;2023-02-18T14:32:58;3.80;;;1.13;;
61640;SDS011;62201;49.966;8.342;2023-02-18T14:35:33;7.22;;;1.55;;
61640;SDS011;62201;49.966;8.342;2023-02-18T14:52:28;2.72;;;1.10;;
61640;SDS011;62201;49.966;8.342;2023-02-18T14:57:40;2.45;;;0.85;;
61640;SDS011;62201;49.966;8.342;2023-02-18T15:00:26;3.17;;;0.88;;
61640;SDS011;62201;49.966;8.342;2023-02-18T15:02:56;2.00;;;0.80;;
61640;SDS011;62201;49.966;8.342;2023-02-18T15:05:24;3.25;;;0.93;;
61640;SDS011;62201;49.966;8.342;2023-02-18T15:08:04;2.65;;;1.25;;
61640;SDS011;62201;49.966;8.342;2023-02-18T15:10:41;3.45;;;0.80;;
61640;SDS011;62201;49.966;8.342;2023-02-18T15:13:29;2.22;;;0.70;;
61640;SDS011;62201;49.966;8.342;2023-02-18T15:15:58;3.80;;;0.93;;
61640;SDS011;62201;49.966;8.342;2023-02-18T15:23:51;2.90;;;0.85;;
61640;SDS011;62201;49.966;8.342;2023-02-18T15:26:17;4.82;;;0.98;;
61640;SDS011;62201;49.966;8.342;2023-02-18T15:29:43;1.10;;;0.70;;
61640;SDS011;62201;49.966;8.342;2023-02-18T15:31:41;2.72;;;0.80;;
61640;SDS011;62201;49.966;8.342;2023-02-18T15:34:23;2.30;;;0.70;;
61640;SDS011;62201;49.966;8.342;2023-02-18T15:36:52;1.90;;;0.70;;
61640;SDS011;62201;49.966;8.342;2023-02-18T15:39:18;3.13;;;1.08;;
61640;SDS011;62201;49.966;8.342;2023-02-18T15:41:43;2.20;;;0.90;;
61640;SDS011;62201;49.966;8.342;2023-02-18T15:44:15;2.55;;;1.13;;
61640;SDS011;62201;49.966;8.342;2023-02-18T15:46:44;1.77;;;0.50;;
61640;SDS011;62201;49.966;8.342;2023-02-18T15:49:10;2.20;;;0.70;;
61640;SDS011;62201;49.966;8.342;2023-02-18T15:51:44;1.80;;;0.95;;
61640;SDS011;62201;49.966;8.342;2023-02-18T15:54:11;1.77;;;0.77;;
61640;SDS011;62201;49.966;8.342;2023-02-18T15:56:41;2.25;;;0.90;;
61640;SDS011;62201;49.966;8.342;2023-02-18T16:01:55;3.10;;;1.08;;
61640;SDS011;62201;49.966;8.342;2023-02-18T16:04:30;2.05;;;0.82;;
61640;SDS011;62201;49.966;8.342;2023-02-18T16:06:56;1.95;;;0.90;;
61640;SDS011;62201;49.966;8.342;2023-02-18T16:09:31;2.33;;;0.70;;
61640;SDS011;62201;49.966;8.342;2023-02-18T16:11:58;3.13;;;1.00;;
61640;SDS011;62201;49.966;8.342;2023-02-18T16:14:46;1.77;;;0.80;;
61640;SDS011;62201;49.966;8.342;2023-02-18T16:17:20;1.65;;;0.80;;
61640;SDS011;62201;49.966;8.342;2023-02-18T16:19:54;3.35;;;0.90;;
61640;SDS011;62201;49.966;8.342;2023-02-18T16:22:23;2.88;;;1.17;;
61640;SDS011;62201;49.966;8.342;2023-02-18T16:25:17;3.47;;;1.08;;
61640;SDS011;62201;49.966;8.342;2023-02-18T16:27:50;2.40;;;1.20;;
61640;SDS011;62201;49.966;8.342;2023-02-18T16:30:29;1.95;;;0.93;;
61640;SDS011;62201;49.966;8.342;2023-02-18T16:32:59;2.30;;;0.80;;
61640;SDS011;62201;49.966;8.342;2023-02-18T16:35:26;3.38;;;1.05;;
61640;SDS011;62201;49.966;8.342;2023-02-18T16:37:54;4.78;;;1.17;;
61640;SDS011;62201;49.966;8.342;2023-02-18T16:43:01;3.30;;;1.00;;
61640;SDS011;62201;49.966;8.342;2023-02-18T16:45:40;5.07;;;1.20;;
61640;SDS011;62201;49.966;8.342;2023-02-18T16:48:10;2.63;;;1.10;;
61640;SDS011;62201;49.966;8.342;2023-02-18T16:50:43;4.05;;;1.20;;
61640;SDS011;62201;49.966;8.342;2023-02-18T16:53:09;3.15;;;1.10;;
61640;SDS011;62201;49.966;8.342;2023-02-18T16:55:37;4.72;;;1.05;;
61640;SDS011;62201;49.966;8.342;2023-02-18T16:58:03;2.47;;;1.00;;
61640;SDS011;62201;49.966;8.342;2023-02-18T17:00:28;2.05;;;1.17;;
61640;SDS011;62201;49.966;8.342;2023-02-18T17:02:55;2.60;;;1.02;;
61640;SDS011;62201;49.966;8.342;2023-02-18T17:05:23;4.32;;;1.33;;
61640;SDS011;62201;49.966;8.342;2023-02-18T17:07:51;3.40;;;1.42;;
61640;SDS011;62201;49.966;8.342;2023-02-18T17:10:16;2.28;;;1.02;;
61640;SDS011;62201;49.966;8.342;2023-02-18T17:12:42;3.35;;;1.30;;
61640;SDS011;62201;49.966;8.342;2023-02-18T17:17:45;4.72;;;1.35;;
61640;SDS011;62201;49.966;8.342;2023-02-18T17:20:10;3.40;;;1.20;;
61640;SDS011;62201;49.966;8.342;2023-02-18T17:22:38;2.53;;;1.20;;
61640;SDS011;62201;49.966;8.342;2023-02-18T17:25:08;2.88;;;1.20;;
61640;SDS011;62201;49.966;8.342;2023-02-18T17:27:36;4.20;;;1.30;;
61640;SDS011;62201;49.966;8.342;2023-02-18T17:30:01;3.30;;;1.02;;
61640;SDS011;62201;49.966;8.342;2023-02-18T17:32:27;3.95;;;1.50;;
61640;SDS011;62201;49.966;8.342;2023-02-18T17:34:53;4.97;;;1.30;;
61640;SDS011;62201;49.966;8.342;2023-02-18T17:37:18;5.07;;;2.83;;